sensor_id;sensor_type;location;lat;lon;timestamp;pressure;altitude;pressure_sealevel;temperature;humidity
27294;BME280;14785;52.556;13.430;2023-05-23T00:00:22;100393.13;;;21.52;89.23
27294;BME280;14785;52.556;13.430;2023-05-23T00:02:48;100381.53;;;21.74;88.21
27294;BME280;14785;52.556;13.430;2023-05-23T00:05:13;100377.84;;;21.92;89.01
27294;BME280;14785;52.556;13.430;2023-05-23T00:07:42;100375.81;;;22.22;88.89
27294;BME280;14785;52.556;13.430;2023-05-23T00:10:08;100378.97;;;22.42;84.63
27294;BME280;14785;52.556;13.430;2023-05-23T00:12:34;100380.03;;;22.52;84.99
27294;BME280;14785;52.556;13.430;2023-05-23T00:15:02;100380.16;;;22.34;84.95
27294;BME280;14785;52.556;13.430;2023-05-23T00:17:27;100378.56;;;22.10;83.68
27294;BME280;14785;52.556;13.430;2023-05-23T00:19:53;100384.78;;;22.22;87.74
27294;BME280;14785;52.556;13.430;2023-05-23T00:22:20;100371.31;;;22.27;86.70
27294;BME280;14785;52.556;13.430;2023-05-23T00:24:46;100377.00;;;22.14;83.29
27294;BME280;14785;52.556;13.430;2023-05-23T00:27:11;100374.19;;;22.09;86.79
27294;BME280;14785;52.556;13.430;2023-05-23T00:29:36;100355.53;;;22.24;83.31
27294;BME280;14785;52.556;13.430;2023-05-23T00:32:02;100365.72;;;21.94;83.67
27294;BME280;14785;52.556;13.430;2023-05-23T00:34:27;100373.47;;;21.68;86.35
27294;BME280;14785;52.556;13.430;2023-05-23T00:36:53;100371.38;;;21.81;85.65
27294;BME280;14785;52.556;13.430;2023-05-23T00:39:18;100367.13;;;21.51;87.50
27294;BME280;14785;52.556;13.430;2023-05-23T00:41:53;100366.28;;;21.39;88.76
27294;BME280;14785;52.556;13.430;2023-05-23T00:44:19;100375.03;;;21.52;88.86
27294;BME280;14785;52.556;13.430;2023-05-23T00:46:48;100358.44;;;20.78;93.64
27294;BME280;14785;52.556;13.430;2023-05-23T00:49:17;100360.84;;;20.86;95.03
27294;BME280;14785;52.556;13.430;2023-05-23T00:51:44;100361.53;;;21.11;93.48
27294;BME280;14785;52.556;13.430;2023-05-23T00:54:10;100359.81;;;21.51;93.34
27294;BME280;14785;52.556;13.430;2023-05-23T00:56:37;100355.72;;;21.49;90.07
27294;BME280;14785;52.556;13.430;2023-05-23T00:59:04;100344.38;;;21.17;91.41
27294;BME280;14785;52.556;13.430;2023-05-23T01:01:30;100344.84;;;21.26;93.69
27294;BME280;14785;52.556;13.430;2023-05-23T01:03:56;100352.06;;;21.43;91.24
27294;BME280;14785;52.556;13.430;2023-05-23T01:06:22;100340.97;;;21.33;90.77
27294;BME280;14785;52.556;13.430;2023-05-23T01:08:47;100340.22;;;21.03;92.93
27294;BME280;14785;52.556;13.430;2023-05-23T01:11:31;100337.03;;;21.06;92.96
27294;BME280;14785;52.556;13.430;2023-05-23T01:14:18;100333.31;;;21.30;94.28
27294;BME280;14785;52.556;13.430;2023-05-23T01:17:18;100335.22;;;21.53;92.45
27294;BME280;14785;52.556;13.430;2023-05-23T01:27:56;100314.59;;;20.76;95.70
27294;BME280;14785;52.556;13.430;2023-05-23T01:30:24;100319.88;;;21.12;94.13
27294;BME280;14785;52.556;13.430;2023-05-23T01:32:55;100316.63;;;21.33;94.95
27294;BME280;14785;52.556;13.430;2023-05-23T01:35:25;100315.34;;;21.47;92.02
27294;BME280;14785;52.556;13.430;2023-05-23T01:37:56;100315.22;;;21.31;92.07
27294;BME280;14785;52.556;13.430;2023-05-23T01:40:23;100310.97;;;21.23;95.20
27294;BME280;14785;52.556;13.430;2023-05-23T01:42:48;100310.28;;;21.28;94.70
27294;BME280;14785;52.556;13.430;2023-05-23T01:45:14;100314.75;;;20.81;95.84
27294;BME280;14785;52.556;13.430;2023-05-23T01:47:41;100314.25;;;20.72;97.13
27294;BME280;14785;52.556;13.430;2023-05-23T01:50:08;100305.09;;;21.15;96.93
27294;BME280;14785;52.556;13.430;2023-05-23T01:52:34;100304.75;;;21.34;93.46
27294;BME280;14785;52.556;13.430;2023-05-23T01:55:00;100312.75;;;21.29;93.45
27294;BME280;14785;52.556;13.430;2023-05-23T01:57:28;100303.66;;;21.01;96.49
27294;BME280;14785;52.556;13.430;2023-05-23T01:59:55;100306.16;;;21.48;94.42
27294;BME280;14785;52.556;13.430;2023-05-23T02:02:21;100319.69;;;21.48;96.71
27294;BME280;14785;52.556;13.430;2023-05-23T02:04:48;100312.53;;;21.65;93.96
27294;BME280;14785;52.556;13.430;2023-05-23T02:07:13;100306.53;;;21.75;93.84
27294;BME280;14785;52.556;13.430;2023-05-23T02:09:39;100307.22;;;21.59;92.48
27294;BME280;14785;52.556;13.430;2023-05-23T02:12:05;100303.44;;;21.48;93.24
27294;BME280;14785;52.556;13.430;2023-05-23T02:14:31;100304.25;;;21.14;95.94
27294;BME280;14785;52.556;13.430;2023-05-23T02:16:56;100308.72;;;20.79;98.81
27294;BME280;14785;52.556;13.430;2023-05-23T02:19:22;100306.50;;;20.76;100.00
27294;BME280;14785;52.556;13.430;2023-05-23T02:21:47;100311.25;;;20.92;100.00
27294;BME280;14785;52.556;13.430;2023-05-23T02:24:14;100307.09;;;21.19;99.57
27294;BME280;14785;52.556;13.430;2023-05-23T02:26:39;100308.88;;;21.48;97.40
27294;BME280;14785;52.556;13.430;2023-05-23T02:29:05;100307.34;;;21.52;94.91
27294;BME280;14785;52.556;13.430;2023-05-23T02:31:31;100315.22;;;21.42;94.20
27294;BME280;14785;52.556;13.430;2023-05-23T02:33:56;100308.78;;;21.43;97.87
27294;BME280;14785;52.556;13.430;2023-05-23T02:36:22;100296.28;;;21.19;95.33
27294;BME280;14785;52.556;13.430;2023-05-23T02:38:47;100302.53;;;21.31;96.72
27294;BME280;14785;52.556;13.430;2023-05-23T02:41:13;100307.09;;;21.65;93.60
27294;BME280;14785;52.556;13.430;2023-05-23T02:43:38;100309.00;;;21.76;93.35
27294;BME280;14785;52.556;13.430;2023-05-23T02:46:04;100304.28;;;21.83;92.59
27294;BME280;14785;52.556;13.430;2023-05-23T02:48:29;100309.72;;;21.83;94.88
27294;BME280;14785;52.556;13.430;2023-05-23T02:50:55;100306.13;;;21.94;91.14
27294;BME280;14785;52.556;13.430;2023-05-23T02:53:20;100302.50;;;21.89;93.69
27294;BME280;14785;52.556;13.430;2023-05-23T02:55:46;100304.66;;;21.75;96.43
27294;BME280;14785;52.556;13.430;2023-05-23T02:58:12;100305.94;;;21.73;93.75
27294;BME280;14785;52.556;13.430;2023-05-23T03:00:37;100300.63;;;21.66;97.19
27294;BME280;14785;52.556;13.430;2023-05-23T03:03:03;100302.16;;;21.62;96.37
27294;BME280;14785;52.556;13.430;2023-05-23T03:05:28;100301.09;;;21.63;96.81
27294;BME280;14785;52.556;13.430;2023-05-23T03:07:54;100299.81;;;21.54;98.95
27294;BME280;14785;52.556;13.430;2023-05-23T03:10:19;100288.88;;;21.61;99.18
27294;BME280;14785;52.556;13.430;2023-05-23T03:12:45;100290.75;;;21.60;99.71
27294;BME280;14785;52.556;13.430;2023-05-23T03:15:11;100285.78;;;21.69;99.00
27294;BME280;14785;52.556;13.430;2023-05-23T03:17:37;100296.28;;;21.42;100.00
27294;BME280;14785;52.556;13.430;2023-05-23T03:20:03;100283.47;;;21.26;100.00
27294;BME280;14785;52.556;13.430;2023-05-23T03:22:31;100284.75;;;21.35;100.00
27294;BME280;14785;52.556;13.430;2023-05-23T03:24:57;100282.06;;;21.35;100.00
27294;BME280;14785;52.556;13.430;2023-05-23T03:27:22;100284.97;;;21.45;100.00
27294;BME280;14785;52.556;13.430;2023-05-23T03:29:47;100289.56;;;21.33;100.00
27294;BME280;14785;52.556;13.430;2023-05-23T03:32:13;100284.28;;;21.50;100.00
27294;BME280;14785;52.556;13.430;2023-05-23T03:34:38;100280.97;;;21.36;100.00
27294;BME280;14785;52.556;13.430;2023-05-23T03:37:04;100295.94;;;21.39;100.00
27294;BME280;14785;52.556;13.430;2023-05-23T03:39:29;100286.28;;;21.43;100.00
27294;BME280;14785;52.556;13.430;2023-05-23T03:41:55;100293.34;;;21.55;100.00
27294;BME280;14785;52.556;13.430;2023-05-23T03:44:20;100293.19;;;21.73;100.00
27294;BME280;14785;52.556;13.430;2023-05-23T03:46:46;100283.59;;;21.77;100.00
27294;BME280;14785;52.556;13.430;2023-05-23T03:49:11;100288.28;;;21.47;100.00
27294;BME280;14785;52.556;13.430;2023-05-23T03:51:43;100284.03;;;21.51;100.00
27294;BME280;14785;52.556;13.430;2023-05-23T03:54:09;100279.56;;;21.45;100.00
27294;BME280;14785;52.556;13.430;2023-05-23T03:56:34;100279.00;;;21.43;100.00
27294;BME280;14785;52.556;13.430;2023-05-23T03:58:59;100277.25;;;21.37;100.00
27294;BME280;14785;52.556;13.430;2023-05-23T04:01:25;100276.03;;;21.33;100.00
27294;BME280;14785;52.556;13.430;2023-05-23T04:03:51;100278.28;;;21.13;100.00
27294;BME280;14785;52.556;13.430;2023-05-23T04:06:17;100282.16;;;21.17;100.00
27294;BME280;14785;52.556;13.430;2023-05-23T04:08:44;100277.69;;;21.11;100.00
27294;BME280;14785;52.556;13.430;2023-05-23T04:11:10;100284.72;;;21.12;100.00
27294;BME280;14785;52.556;13.430;2023-05-23T04:13:35;100280.06;;;21.19;100.00
27294;BME280;14785;52.556;13.430;2023-05-23T04:16:01;100276.28;;;21.20;100.00
27294;BME280;14785;52.556;13.430;2023-05-23T04:18:30;100280.28;;;21.29;100.00
27294;BME280;14785;52.556;13.430;2023-05-23T04:20:57;100271.34;;;21.17;100.00
27294;BME280;14785;52.556;13.430;2023-05-23T04:23:24;100271.09;;;21.19;100.00
27294;BME280;14785;52.556;13.430;2023-05-23T04:25:50;100272.63;;;21.38;100.00
27294;BME280;14785;52.556;13.430;2023-05-23T04:28:16;100270.53;;;21.40;100.00
27294;BME280;14785;52.556;13.430;2023-05-23T04:30:42;100268.66;;;21.40;100.00
27294;BME280;14785;52.556;13.430;2023-05-23T04:33:07;100274.03;;;21.17;100.00
27294;BME280;14785;52.556;13.430;2023-05-23T04:35:34;100272.41;;;21.39;100.00
27294;BME280;14785;52.556;13.430;2023-05-23T04:38:22;100283.00;;;21.29;100.00
27294;BME280;14785;52.556;13.430;2023-05-23T04:40:49;100276.50;;;21.30;100.00
27294;BME280;14785;52.556;13.430;2023-05-23T04:43:16;100275.91;;;21.17;100.00
27294;BME280;14785;52.556;13.430;2023-05-23T04:45:44;100277.69;;;20.70;100.00
27294;BME280;14785;52.556;13.430;2023-05-23T04:48:11;100266.03;;;21.11;100.00
27294;BME280;14785;52.556;13.430;2023-05-23T04:50:38;100266.63;;;21.01;100.00
27294;BME280;14785;52.556;13.430;2023-05-23T04:53:05;100266.94;;;20.93;100.00
27294;BME280;14785;52.556;13.430;2023-05-23T04:55:30;100272.03;;;21.24;100.00
27294;BME280;14785;52.556;13.430;2023-05-23T04:57:56;100278.06;;;21.15;100.00
27294;BME280;14785;52.556;13.430;2023-05-23T05:00:21;100280.53;;;21.28;100.00
27294;BME280;14785;52.556;13.430;2023-05-23T05:02:47;100265.47;;;21.20;100.00
27294;BME280;14785;52.556;13.430;2023-05-23T05:05:13;100264.53;;;21.26;100.00
27294;BME280;14785;52.556;13.430;2023-05-23T05:07:38;100253.44;;;21.39;100.00
27294;BME280;14785;52.556;13.430;2023-05-23T05:10:06;100256.75;;;21.41;100.00
27294;BME280;14785;52.556;13.430;2023-05-23T05:12:31;100267.34;;;21.43;100.00
27294;BME280;14785;52.556;13.430;2023-05-23T05:14:57;100265.22;;;21.33;100.00
27294;BME280;14785;52.556;13.430;2023-05-23T05:17:22;100273.22;;;21.51;100.00
27294;BME280;14785;52.556;13.430;2023-05-23T05:19:49;100277.59;;;21.52;100.00
27294;BME280;14785;52.556;13.430;2023-05-23T05:22:14;100279.22;;;21.53;100.00
27294;BME280;14785;52.556;13.430;2023-05-23T05:24:39;100274.63;;;21.42;100.00
27294;BME280;14785;52.556;13.430;2023-05-23T05:27:05;100275.81;;;21.46;100.00
27294;BME280;14785;52.556;13.430;2023-05-23T05:29:31;100273.44;;;21.61;100.00
27294;BME280;14785;52.556;13.430;2023-05-23T05:31:58;100276.88;;;21.45;100.00
27294;BME280;14785;52.556;13.430;2023-05-23T05:34:25;100273.25;;;21.28;100.00
27294;BME280;14785;52.556;13.430;2023-05-23T05:36:52;100286.63;;;21.23;100.00
27294;BME280;14785;52.556;13.430;2023-05-23T05:39:22;100284.50;;;21.02;100.00
27294;BME280;14785;52.556;13.430;2023-05-23T05:41:48;100287.34;;;21.07;100.00
27294;BME280;14785;52.556;13.430;2023-05-23T05:44:14;100290.88;;;21.19;100.00
27294;BME280;14785;52.556;13.430;2023-05-23T05:46:39;100294.16;;;21.21;100.00
27294;BME280;14785;52.556;13.430;2023-05-23T05:49:04;100291.41;;;20.68;100.00
27294;BME280;14785;52.556;13.430;2023-05-23T05:51:30;100288.38;;;21.06;100.00
27294;BME280;14785;52.556;13.430;2023-05-23T05:53:56;100293.81;;;20.88;100.00
27294;BME280;14785;52.556;13.430;2023-05-23T05:56:22;100283.88;;;21.00;100.00
27294;BME280;14785;52.556;13.430;2023-05-23T05:58:47;100280.53;;;21.16;100.00
27294;BME280;14785;52.556;13.430;2023-05-23T06:01:13;100278.97;;;21.20;100.00
27294;BME280;14785;52.556;13.430;2023-05-23T06:03:38;100273.81;;;21.30;100.00
27294;BME280;14785;52.556;13.430;2023-05-23T06:06:04;100272.41;;;21.51;100.00
27294;BME280;14785;52.556;13.430;2023-05-23T06:08:31;100273.22;;;21.40;100.00
27294;BME280;14785;52.556;13.430;2023-05-23T06:10:56;100270.41;;;21.46;100.00
27294;BME280;14785;52.556;13.430;2023-05-23T06:13:21;100266.88;;;21.23;100.00
27294;BME280;14785;52.556;13.430;2023-05-23T06:15:47;100258.03;;;21.27;100.00
27294;BME280;14785;52.556;13.430;2023-05-23T06:18:12;100266.25;;;21.67;100.00
27294;BME280;14785;52.556;13.430;2023-05-23T06:20:38;100257.19;;;21.61;100.00
27294;BME280;14785;52.556;13.430;2023-05-23T06:23:04;100254.41;;;21.33;100.00
27294;BME280;14785;52.556;13.430;2023-05-23T06:25:31;100263.31;;;21.68;100.00
27294;BME280;14785;52.556;13.430;2023-05-23T06:27:57;100255.06;;;21.75;100.00
27294;BME280;14785;52.556;13.430;2023-05-23T06:30:22;100261.94;;;21.77;100.00
27294;BME280;14785;52.556;13.430;2023-05-23T06:32:48;100267.81;;;21.28;100.00
27294;BME280;14785;52.556;13.430;2023-05-23T06:35:15;100263.34;;;21.45;100.00
27294;BME280;14785;52.556;13.430;2023-05-23T06:37:41;100261.00;;;21.37;100.00
27294;BME280;14785;52.556;13.430;2023-05-23T06:40:11;100259.13;;;21.49;100.00
27294;BME280;14785;52.556;13.430;2023-05-23T06:42:36;100256.03;;;21.80;100.00
27294;BME280;14785;52.556;13.430;2023-05-23T06:45:03;100264.94;;;21.92;100.00
27294;BME280;14785;52.556;13.430;2023-05-23T06:47:29;100269.09;;;21.49;100.00
27294;BME280;14785;52.556;13.430;2023-05-23T06:49:54;100264.63;;;21.77;100.00
27294;BME280;14785;52.556;13.430;2023-05-23T06:52:21;100265.97;;;22.03;100.00
27294;BME280;14785;52.556;13.430;2023-05-23T06:54:46;100267.56;;;22.27;100.00
27294;BME280;14785;52.556;13.430;2023-05-23T06:57:12;100260.88;;;22.18;100.00
27294;BME280;14785;52.556;13.430;2023-05-23T06:59:37;100265.25;;;22.07;100.00
27294;BME280;14785;52.556;13.430;2023-05-23T07:02:04;100262.94;;;22.27;100.00
27294;BME280;14785;52.556;13.430;2023-05-23T07:04:29;100262.41;;;22.42;100.00
27294;BME280;14785;52.556;13.430;2023-05-23T07:06:55;100268.47;;;22.61;100.00
27294;BME280;14785;52.556;13.430;2023-05-23T07:09:20;100270.25;;;21.87;100.00
27294;BME280;14785;52.556;13.430;2023-05-23T07:11:46;100269.72;;;22.41;100.00
27294;BME280;14785;52.556;13.430;2023-05-23T07:14:11;100266.50;;;22.56;100.00
27294;BME280;14785;52.556;13.430;2023-05-23T07:16:36;100268.88;;;22.41;100.00
27294;BME280;14785;52.556;13.430;2023-05-23T07:19:02;100276.09;;;21.96;100.00
27294;BME280;14785;52.556;13.430;2023-05-23T07:21:29;100275.78;;;21.69;100.00
27294;BME280;14785;52.556;13.430;2023-05-23T07:23:56;100275.66;;;21.87;100.00
27294;BME280;14785;52.556;13.430;2023-05-23T07:26:21;100278.16;;;21.77;100.00
27294;BME280;14785;52.556;13.430;2023-05-23T07:28:46;100279.28;;;20.89;100.00
27294;BME280;14785;52.556;13.430;2023-05-23T07:31:12;100276.81;;;20.58;100.00
27294;BME280;14785;52.556;13.430;2023-05-23T07:33:38;100266.78;;;20.88;100.00
27294;BME280;14785;52.556;13.430;2023-05-23T07:36:03;100271.38;;;19.99;100.00
27294;BME280;14785;52.556;13.430;2023-05-23T07:38:29;100262.94;;;20.43;100.00
27294;BME280;14785;52.556;13.430;2023-05-23T07:40:54;100254.75;;;20.61;100.00
27294;BME280;14785;52.556;13.430;2023-05-23T07:43:20;100255.81;;;21.24;100.00
27294;BME280;14785;52.556;13.430;2023-05-23T07:45:45;100260.06;;;21.43;100.00
27294;BME280;14785;52.556;13.430;2023-05-23T07:48:10;100242.44;;;22.31;100.00
27294;BME280;14785;52.556;13.430;2023-05-23T07:50:39;100264.88;;;22.15;100.00
27294;BME280;14785;52.556;13.430;2023-05-23T07:53:05;100263.59;;;21.55;100.00
27294;BME280;14785;52.556;13.430;2023-05-23T07:55:30;100265.75;;;20.89;100.00
27294;BME280;14785;52.556;13.430;2023-05-23T07:57:56;100264.03;;;20.53;100.00
27294;BME280;14785;52.556;13.430;2023-05-23T08:00:21;100270.31;;;20.00;100.00
27294;BME280;14785;52.556;13.430;2023-05-23T08:02:47;100269.53;;;19.81;100.00
27294;BME280;14785;52.556;13.430;2023-05-23T08:05:12;100271.38;;;20.17;100.00
27294;BME280;14785;52.556;13.430;2023-05-23T08:07:38;100274.91;;;20.17;100.00
27294;BME280;14785;52.556;13.430;2023-05-23T08:10:04;100280.97;;;20.72;100.00
27294;BME280;14785;52.556;13.430;2023-05-23T08:12:29;100282.16;;;21.17;100.00
27294;BME280;14785;52.556;13.430;2023-05-23T08:14:55;100275.53;;;20.49;100.00
27294;BME280;14785;52.556;13.430;2023-05-23T08:17:21;100285.56;;;19.94;100.00
27294;BME280;14785;52.556;13.430;2023-05-23T08:19:46;100269.97;;;20.44;100.00
27294;BME280;14785;52.556;13.430;2023-05-23T08:22:12;100275.38;;;20.44;100.00
27294;BME280;14785;52.556;13.430;2023-05-23T08:24:37;100282.91;;;19.34;100.00
27294;BME280;14785;52.556;13.430;2023-05-23T08:27:03;100285.16;;;19.91;100.00
27294;BME280;14785;52.556;13.430;2023-05-23T08:29:30;100281.50;;;20.21;100.00
27294;BME280;14785;52.556;13.430;2023-05-23T08:31:55;100296.34;;;20.30;100.00
27294;BME280;14785;52.556;13.430;2023-05-23T08:34:20;100285.31;;;20.32;100.00
27294;BME280;14785;52.556;13.430;2023-05-23T08:36:46;100285.34;;;20.14;100.00
27294;BME280;14785;52.556;13.430;2023-05-23T08:39:11;100297.59;;;20.46;100.00
27294;BME280;14785;52.556;13.430;2023-05-23T08:41:38;100296.84;;;20.39;100.00
27294;BME280;14785;52.556;13.430;2023-05-23T08:44:04;100302.59;;;20.31;100.00
27294;BME280;14785;52.556;13.430;2023-05-23T08:46:31;100303.31;;;20.79;100.00
27294;BME280;14785;52.556;13.430;2023-05-23T08:48:58;100303.78;;;20.17;100.00
27294;BME280;14785;52.556;13.430;2023-05-23T08:51:26;100298.97;;;20.37;100.00
27294;BME280;14785;52.556;13.430;2023-05-23T08:53:52;100308.50;;;20.80;100.00
27294;BME280;14785;52.556;13.430;2023-05-23T08:56:18;100306.97;;;21.03;100.00
27294;BME280;14785;52.556;13.430;2023-05-23T08:58:44;100311.00;;;21.46;100.00
27294;BME280;14785;52.556;13.430;2023-05-23T09:01:12;100312.16;;;21.96;100.00
27294;BME280;14785;52.556;13.430;2023-05-23T09:03:38;100313.66;;;20.41;100.00
27294;BME280;14785;52.556;13.430;2023-05-23T09:06:05;100319.22;;;21.40;100.00
27294;BME280;14785;52.556;13.430;2023-05-23T09:08:35;100308.03;;;21.13;100.00
27294;BME280;14785;52.556;13.430;2023-05-23T09:11:04;100313.00;;;21.74;100.00
27294;BME280;14785;52.556;13.430;2023-05-23T09:13:31;100314.84;;;21.73;100.00
27294;BME280;14785;52.556;13.430;2023-05-23T09:16:00;100327.84;;;20.66;100.00
27294;BME280;14785;52.556;13.430;2023-05-23T09:18:36;100322.59;;;21.01;100.00
27294;BME280;14785;52.556;13.430;2023-05-23T09:21:03;100325.84;;;20.61;100.00
27294;BME280;14785;52.556;13.430;2023-05-23T09:23:32;100328.03;;;20.53;100.00
27294;BME280;14785;52.556;13.430;2023-05-23T09:26:06;100325.09;;;21.25;100.00
27294;BME280;14785;52.556;13.430;2023-05-23T09:28:33;100331.78;;;21.11;100.00
27294;BME280;14785;52.556;13.430;2023-05-23T09:31:04;100319.13;;;20.64;100.00
27294;BME280;14785;52.556;13.430;2023-05-23T09:33:45;100324.91;;;20.97;100.00
27294;BME280;14785;52.556;13.430;2023-05-23T09:36:15;100329.47;;;21.49;100.00
27294;BME280;14785;52.556;13.430;2023-05-23T09:38:42;100332.56;;;21.00;100.00
27294;BME280;14785;52.556;13.430;2023-05-23T09:41:08;100317.22;;;21.81;100.00
27294;BME280;14785;52.556;13.430;2023-05-23T09:43:58;100327.69;;;22.01;100.00
27294;BME280;14785;52.556;13.430;2023-05-23T09:46:28;100325.66;;;22.19;100.00
27294;BME280;14785;52.556;13.430;2023-05-23T09:48:56;100340.88;;;21.51;100.00
27294;BME280;14785;52.556;13.430;2023-05-23T09:51:22;100321.66;;;22.10;100.00
27294;BME280;14785;52.556;13.430;2023-05-23T09:53:50;100318.25;;;22.54;100.00
27294;BME280;14785;52.556;13.430;2023-05-23T09:56:16;100331.22;;;20.91;100.00
27294;BME280;14785;52.556;13.430;2023-05-23T09:58:52;100327.16;;;21.00;100.00
27294;BME280;14785;52.556;13.430;2023-05-23T10:01:21;100336.63;;;20.91;100.00
27294;BME280;14785;52.556;13.430;2023-05-23T10:03:51;100325.81;;;21.67;100.00
27294;BME280;14785;52.556;13.430;2023-05-23T10:06:40;100332.09;;;21.03;100.00
27294;BME280;14785;52.556;13.430;2023-05-23T10:09:08;100337.38;;;21.51;100.00
27294;BME280;14785;52.556;13.430;2023-05-23T10:14:45;100333.53;;;22.21;100.00
27294;BME280;14785;52.556;13.430;2023-05-23T10:17:51;100339.44;;;21.26;100.00
27294;BME280;14785;52.556;13.430;2023-05-23T10:20:20;100340.28;;;21.72;100.00
27294;BME280;14785;52.556;13.430;2023-05-23T10:22:47;100345.34;;;21.69;100.00
27294;BME280;14785;52.556;13.430;2023-05-23T10:25:13;100329.88;;;22.15;100.00
27294;BME280;14785;52.556;13.430;2023-05-23T10:27:41;100335.47;;;21.86;100.00
27294;BME280;14785;52.556;13.430;2023-05-23T10:30:08;100356.66;;;21.54;100.00
27294;BME280;14785;52.556;13.430;2023-05-23T10:32:34;100333.22;;;21.94;100.00
27294;BME280;14785;52.556;13.430;2023-05-23T10:38:24;100335.53;;;21.10;100.00
27294;BME280;14785;52.556;13.430;2023-05-23T10:43:46;100324.22;;;22.28;100.00
27294;BME280;14785;52.556;13.430;2023-05-23T10:46:13;100321.19;;;22.13;100.00
27294;BME280;14785;52.556;13.430;2023-05-23T10:48:43;100328.56;;;22.29;100.00
27294;BME280;14785;52.556;13.430;2023-05-23T10:51:13;100334.88;;;21.61;100.00
27294;BME280;14785;52.556;13.430;2023-05-23T10:53:44;100356.59;;;21.20;100.00
27294;BME280;14785;52.556;13.430;2023-05-23T10:56:18;100327.78;;;22.57;100.00
27294;BME280;14785;52.556;13.430;2023-05-23T10:58:53;100353.63;;;20.98;100.00
27294;BME280;14785;52.556;13.430;2023-05-23T11:01:20;100355.28;;;21.11;100.00
27294;BME280;14785;52.556;13.430;2023-05-23T11:14:18;100358.22;;;19.96;100.00
27294;BME280;14785;52.556;13.430;2023-05-23T11:16:44;100387.44;;;19.81;100.00
27294;BME280;14785;52.556;13.430;2023-05-23T11:21:43;100375.09;;;19.91;100.00
27294;BME280;14785;52.556;13.430;2023-05-23T11:24:09;100373.28;;;20.28;100.00
27294;BME280;14785;52.556;13.430;2023-05-23T11:26:35;100362.75;;;20.38;100.00
27294;BME280;14785;52.556;13.430;2023-05-23T11:29:00;100393.72;;;19.75;100.00
27294;BME280;14785;52.556;13.430;2023-05-23T11:31:28;100369.59;;;19.62;100.00
27294;BME280;14785;52.556;13.430;2023-05-23T11:33:54;100376.06;;;19.97;100.00
27294;BME280;14785;52.556;13.430;2023-05-23T11:36:23;100369.16;;;19.83;100.00
27294;BME280;14785;52.556;13.430;2023-05-23T11:38:50;100374.97;;;20.22;100.00
27294;BME280;14785;52.556;13.430;2023-05-23T11:41:17;100374.28;;;20.27;100.00
27294;BME280;14785;52.556;13.430;2023-05-23T11:43:52;100372.94;;;20.18;100.00
27294;BME280;14785;52.556;13.430;2023-05-23T11:46:18;100373.75;;;19.58;100.00
27294;BME280;14785;52.556;13.430;2023-05-23T11:48:47;100370.50;;;19.74;100.00
27294;BME280;14785;52.556;13.430;2023-05-23T11:51:13;100378.88;;;19.66;100.00
27294;BME280;14785;52.556;13.430;2023-05-23T11:53:39;100373.47;;;19.66;100.00
27294;BME280;14785;52.556;13.430;2023-05-23T11:56:05;100377.91;;;20.21;100.00
27294;BME280;14785;52.556;13.430;2023-05-23T11:58:37;100370.44;;;20.82;100.00
27294;BME280;14785;52.556;13.430;2023-05-23T12:01:06;100377.31;;;19.52;100.00
27294;BME280;14785;52.556;13.430;2023-05-23T12:03:45;100421.91;;;19.30;100.00
27294;BME280;14785;52.556;13.430;2023-05-23T12:06:18;100398.69;;;19.22;100.00
27294;BME280;14785;52.556;13.430;2023-05-23T12:08:45;100391.00;;;19.57;100.00
27294;BME280;14785;52.556;13.430;2023-05-23T12:11:10;100392.63;;;20.43;100.00
27294;BME280;14785;52.556;13.430;2023-05-23T12:13:36;100383.63;;;20.31;100.00
27294;BME280;14785;52.556;13.430;2023-05-23T12:16:02;100386.31;;;20.49;100.00
27294;BME280;14785;52.556;13.430;2023-05-23T12:18:30;100399.22;;;20.76;100.00
27294;BME280;14785;52.556;13.430;2023-05-23T12:21:03;100399.00;;;19.88;100.00
27294;BME280;14785;52.556;13.430;2023-05-23T12:23:30;100403.50;;;19.51;100.00
27294;BME280;14785;52.556;13.430;2023-05-23T12:25:56;100389.47;;;19.43;100.00
27294;BME280;14785;52.556;13.430;2023-05-23T12:28:38;100393.47;;;20.01;100.00
27294;BME280;14785;52.556;13.430;2023-05-23T12:31:10;100399.97;;;20.18;100.00
27294;BME280;14785;52.556;13.430;2023-05-23T12:33:40;100423.50;;;18.68;100.00
27294;BME280;14785;52.556;13.430;2023-05-23T12:36:21;100410.00;;;19.13;100.00
27294;BME280;14785;52.556;13.430;2023-05-23T12:38:47;100419.28;;;18.85;100.00
27294;BME280;14785;52.556;13.430;2023-05-23T12:41:17;100407.84;;;19.28;100.00
27294;BME280;14785;52.556;13.430;2023-05-23T12:43:50;100412.47;;;19.14;100.00
27294;BME280;14785;52.556;13.430;2023-05-23T12:46:23;100409.63;;;19.02;100.00
27294;BME280;14785;52.556;13.430;2023-05-23T12:48:51;100411.25;;;18.72;100.00
27294;BME280;14785;52.556;13.430;2023-05-23T12:51:17;100412.41;;;19.21;100.00
27294;BME280;14785;52.556;13.430;2023-05-23T12:53:43;100421.19;;;19.47;100.00
27294;BME280;14785;52.556;13.430;2023-05-23T12:56:08;100413.09;;;19.90;100.00
27294;BME280;14785;52.556;13.430;2023-05-23T12:58:34;100415.09;;;19.52;100.00
27294;BME280;14785;52.556;13.430;2023-05-23T13:01:00;100419.38;;;19.04;100.00
27294;BME280;14785;52.556;13.430;2023-05-23T13:03:27;100409.72;;;19.21;100.00